Time;durP1;ratioP1;P1;durP2;ratioP2;P2;SDS_P1;SDS_P2;PMS_P1;PMS_P2;Temp;Humidity;BMP_temperature;BMP_pressure;BME280_temperature;BME280_humidity;BME280_pressure;Samples;Min_cycle;Max_cycle;Signal;HPM_P1;HPM_P2
2022/03/17 00:01:45;;;;;;;13.07;9.70;;;16.40;83.90;;;;;;5032828;28;20033;-59
2022/03/17 00:04:10;;;;;;;10.35;8.77;;;16.40;83.80;;;;;;5033067;28;20485;-59
2022/03/17 00:06:36;;;;;;;13.18;10.77;;;16.40;83.70;;;;;;5032623;28;20083;-59
2022/03/17 00:09:03;;;;;;;12.85;11.35;;;16.40;83.80;;;;;;5033106;28;20462;-61
2022/03/17 00:11:29;;;;;;;12.80;11.05;;;16.40;83.80;;;;;;5033198;28;20506;-60
2022/03/17 00:13:55;;;;;;;13.45;10.60;;;16.50;83.70;;;;;;5032886;28;20513;-59
2022/03/17 00:16:20;;;;;;;10.07;8.93;;;16.50;83.60;;;;;;5032846;28;20025;-64
2022/03/17 00:18:46;;;;;;;12.50;9.43;;;16.50;83.50;;;;;;5032770;28;20036;-61
2022/03/17 00:21:12;;;;;;;12.75;9.43;;;16.50;83.60;;;;;;5032727;28;20131;-60
2022/03/17 00:23:37;;;;;;;11.13;10.02;;;16.50;83.50;;;;;;5032871;28;20053;-59
2022/03/17 00:26:03;;;;;;;13.23;11.82;;;16.60;83.50;;;;;;5032957;28;20029;-60
2022/03/17 00:28:29;;;;;;;12.07;10.70;;;16.50;83.60;;;;;;5032576;28;20025;-62
2022/03/17 00:30:56;;;;;;;11.57;10.45;;;16.50;83.50;;;;;;5032953;28;20021;-60
2022/03/17 00:33:21;;;;;;;12.50;11.27;;;16.60;83.50;;;;;;5032677;28;20025;-61
2022/03/17 00:35:47;;;;;;;12.40;11.07;;;16.60;83.50;;;;;;5032528;28;20026;-61
2022/03/17 00:38:16;;;;;;;14.70;11.90;;;16.60;83.50;;;;;;5032785;28;20382;-62
2022/03/17 00:40:43;;;;;;;12.25;10.82;;;16.60;83.50;;;;;;5032616;28;20026;-61
2022/03/17 00:43:11;;;;;;;13.65;11.57;;;16.60;83.40;;;;;;5014866;28;20033;-63
2022/03/17 00:45:37;;;;;;;14.50;11.43;;;16.60;83.40;;;;;;5032771;28;20014;-62
2022/03/17 00:48:03;;;;;;;12.82;10.82;;;16.60;83.40;;;;;;5033015;28;20492;-61
2022/03/17 00:50:28;;;;;;;14.52;13.02;;;16.60;83.40;;;;;;5032259;28;20488;-64
2022/03/17 00:52:54;;;;;;;16.90;13.45;;;16.60;83.60;;;;;;5032300;28;20030;-63
2022/03/17 00:55:21;;;;;;;13.45;11.85;;;16.60;83.90;;;;;;5032743;28;20033;-63
2022/03/17 00:57:47;;;;;;;13.80;12.02;;;16.70;83.70;;;;;;5032427;28;20025;-62
2022/03/17 01:00:14;;;;;;;13.77;12.23;;;16.70;83.70;;;;;;5032521;28;20450;-62
2022/03/17 01:02:41;;;;;;;13.52;12.13;;;16.70;83.70;;;;;;5032554;28;20056;-61
2022/03/17 01:05:07;;;;;;;16.05;13.70;;;16.70;83.90;;;;;;5033354;28;20022;-63
2022/03/17 01:07:33;;;;;;;13.20;11.88;;;16.70;84.00;;;;;;5036222;28;20025;-63
2022/03/17 01:09:59;;;;;;;14.23;12.43;;;16.70;83.80;;;;;;5035854;28;20045;-60
2022/03/17 01:12:25;;;;;;;16.80;11.38;;;16.60;84.00;;;;;;5035906;28;20072;-60
2022/03/17 01:14:50;;;;;;;14.82;13.13;;;16.70;84.10;;;;;;5035788;28;20013;-60
2022/03/17 01:17:16;;;;;;;14.20;11.73;;;16.60;84.40;;;;;;5035624;28;20458;-61
2022/03/17 01:19:41;;;;;;;14.15;11.35;;;16.70;85.20;;;;;;5035891;28;20021;-62
2022/03/17 01:22:07;;;;;;;12.43;11.13;;;16.70;84.20;;;;;;5035618;28;20079;-64
2022/03/17 01:24:33;;;;;;;13.65;12.40;;;16.70;84.00;;;;;;5035632;28;20022;-60
2022/03/17 01:26:58;;;;;;;14.05;12.57;;;16.70;84.90;;;;;;5035614;28;20028;-63
2022/03/17 01:29:26;;;;;;;15.48;14.00;;;16.70;84.20;;;;;;5035571;28;20034;-63
2022/03/17 01:31:52;;;;;;;13.98;12.60;;;16.70;84.20;;;;;;5035552;28;20033;-64
2022/03/17 01:34:18;;;;;;;15.07;13.57;;;16.70;84.20;;;;;;5035630;28;20374;-60
2022/03/17 01:36:43;;;;;;;13.40;12.20;;;16.60;83.80;;;;;;5035653;28;20485;-59
2022/03/17 01:39:09;;;;;;;12.25;10.98;;;16.60;83.90;;;;;;5035449;28;20433;-60
2022/03/17 01:41:35;;;;;;;15.60;14.00;;;16.60;83.90;;;;;;5035389;28;20049;-60
2022/03/17 01:44:00;;;;;;;15.75;14.13;;;16.50;83.50;;;;;;5035235;28;20018;-63
2022/03/17 01:46:26;;;;;;;12.82;11.52;;;16.50;83.20;;;;;;5035252;28;20212;-65
2022/03/17 01:48:51;;;;;;;13.68;11.75;;;16.50;83.00;;;;;;5035351;28;20041;-61
2022/03/17 01:51:17;;;;;;;16.63;13.10;;;16.50;82.50;;;;;;5035428;28;20021;-59
2022/03/17 01:53:43;;;;;;;13.02;9.85;;;16.40;81.80;;;;;;5017496;28;20498;-60
2022/03/17 01:56:09;;;;;;;12.23;10.45;;;16.50;82.70;;;;;;5035076;28;20025;-59
2022/03/17 01:58:34;;;;;;;12.73;9.40;;;16.50;81.80;;;;;;5035272;28;20047;-59
2022/03/17 02:01:00;;;;;;;12.48;10.48;;;16.50;82.20;;;;;;5034871;28;20509;-59
2022/03/17 02:03:27;;;;;;;10.25;9.25;;;16.40;81.40;;;;;;5034916;28;20532;-59
2022/03/17 02:05:53;;;;;;;11.75;9.82;;;16.40;81.00;;;;;;5035018;28;20028;-59
2022/03/17 02:08:19;;;;;;;8.85;7.65;;;16.40;80.50;;;;;;5034996;28;20044;-59
2022/03/17 02:13:29;;;;;;;11.50;7.90;;;16.40;81.10;;;;;;5031330;28;20045;-59
2022/03/17 02:15:55;;;;;;;9.35;7.18;;;16.40;80.50;;;;;;5031075;28;20025;-60
2022/03/17 02:18:21;;;;;;;9.23;6.82;;;16.40;80.10;;;;;;5033394;28;20026;-59
2022/03/17 02:20:48;;;;;;;8.02;6.75;;;16.40;80.50;;;;;;5016714;28;20034;-59
2022/03/17 02:25:59;;;;;;;8.60;6.90;;;16.40;79.10;;;;;;5034715;28;20036;-59
2022/03/17 02:28:26;;;;;;;8.48;6.28;;;16.30;78.20;;;;;;5033841;28;20038;-61
2022/03/17 02:30:53;;;;;;;8.55;7.50;;;16.40;78.70;;;;;;5033011;28;20018;-60
2022/03/17 02:33:19;;;;;;;10.68;7.28;;;16.30;78.50;;;;;;5033643;28;20033;-59
2022/03/17 02:35:47;;;;;;;8.45;6.68;;;16.20;77.20;;;;;;5033431;28;20026;-61
2022/03/17 02:38:13;;;;;;;7.20;6.50;;;16.20;77.90;;;;;;5033188;28;20022;-60
2022/03/17 02:40:41;;;;;;;11.35;7.90;;;16.10;77.40;;;;;;5015750;28;20425;-59
2022/03/17 02:43:07;;;;;;;9.07;7.05;;;16.10;76.60;;;;;;5033207;28;20026;-61
2022/03/17 02:45:34;;;;;;;7.22;6.18;;;16.10;77.80;;;;;;5032789;28;20060;-60
2022/03/17 02:48:00;;;;;;;9.35;7.97;;;16.10;78.00;;;;;;5033452;28;20028;-60
2022/03/17 02:50:27;;;;;;;9.82;7.20;;;16.00;77.90;;;;;;5033212;28;20044;-60
2022/03/17 02:52:52;;;;;;;11.95;9.02;;;16.00;77.90;;;;;;5033001;28;20025;-59
2022/03/17 02:55:18;;;;;;;9.00;6.78;;;16.00;77.80;;;;;;5032986;28;20032;-64
2022/03/17 02:57:48;;;;;;;9.90;8.38;;;16.00;78.00;;;;;;5033494;28;20052;-62
2022/03/17 03:00:14;;;;;;;11.52;9.02;;;16.00;77.80;;;;;;5032731;28;20037;-60
2022/03/17 03:02:40;;;;;;;16.48;10.35;;;16.00;77.50;;;;;;5032930;28;20025;-62
2022/03/17 03:05:07;;;;;;;11.15;7.50;;;15.90;77.90;;;;;;5032984;28;20051;-65
2022/03/17 03:07:34;;;;;;;9.07;7.03;;;15.90;77.70;;;;;;5033046;28;20033;-64
2022/03/17 03:09:59;;;;;;;12.55;9.85;;;15.90;77.90;;;;;;5033184;28;20022;-64
2022/03/17 03:12:25;;;;;;;8.07;7.03;;;15.90;77.00;;;;;;5032981;28;20506;-64
2022/03/17 03:14:51;;;;;;;10.27;7.07;;;15.90;77.70;;;;;;5032872;28;20029;-65
2022/03/17 03:17:17;;;;;;;11.68;9.13;;;15.90;77.80;;;;;;5032631;28;20030;-59
2022/03/17 03:19:43;;;;;;;10.48;8.18;;;15.90;77.10;;;;;;5032979;28;20025;-60
2022/03/17 03:22:08;;;;;;;8.80;7.80;;;15.90;76.90;;;;;;5032525;28;20037;-60
2022/03/17 03:24:36;;;;;;;10.10;7.30;;;15.80;77.00;;;;;;5032937;28;20040;-59
2022/03/17 03:27:02;;;;;;;7.47;6.68;;;15.80;77.00;;;;;;5032645;28;20025;-59
2022/03/17 03:29:28;;;;;;;10.73;7.87;;;15.80;77.20;;;;;;4996938;28;1035990;-62
2022/03/17 03:31:59;;;;;;;8.57;7.55;;;15.80;76.60;;;;;;5033261;28;20359;-59
2022/03/17 03:34:27;;;;;;;5.20;3.70;;;15.70;77.00;;;;;;5033378;28;20029;-60
2022/03/17 03:39:38;;;;;;;5.93;5.00;;;15.80;77.40;;;;;;5033550;28;20095;-60
2022/03/17 03:42:05;;;;;;;8.88;6.70;;;15.80;77.10;;;;;;5032874;28;20057;-58
2022/03/17 03:44:31;;;;;;;6.45;4.88;;;15.70;76.50;;;;;;5033087;28;20033;-60
2022/03/17 03:46:57;;;;;;;6.90;6.20;;;15.80;77.50;;;;;;5033243;28;20037;-59
2022/03/17 03:49:22;;;;;;;7.38;5.72;;;15.80;76.50;;;;;;5033215;28;20029;-58
2022/03/17 03:51:48;;;;;;;6.53;5.63;;;15.70;76.40;;;;;;5033023;28;20053;-60
2022/03/17 03:54:15;;;;;;;8.32;6.85;;;15.70;76.60;;;;;;5033357;28;20021;-58
2022/03/17 03:56:45;;;;;;;7.18;6.57;;;15.70;75.90;;;;;;5033429;28;20431;-60
2022/03/17 03:59:17;;;;;;;6.63;5.90;;;15.60;76.10;;;;;;5033230;28;20394;-59
2022/03/17 04:01:43;;;;;;;6.45;5.78;;;15.70;76.40;;;;;;5033049;28;20025;-58
2022/03/17 04:04:09;;;;;;;6.07;5.30;;;15.60;76.50;;;;;;5033018;28;20044;-59
2022/03/17 04:06:40;;;;;;;6.53;5.90;;;15.60;76.40;;;;;;5033341;28;20156;-60
2022/03/17 04:09:06;;;;;;;6.95;6.25;;;15.60;75.60;;;;;;5033179;28;20095;-60
2022/03/17 04:11:32;;;;;;;6.18;5.18;;;15.60;75.70;;;;;;5032792;28;20534;-61
2022/03/17 04:13:57;;;;;;;14.52;6.88;;;15.60;76.50;;;;;;5032801;28;20040;-59
2022/03/17 04:16:23;;;;;;;4.88;3.72;;;15.60;76.00;;;;;;5032850;28;20383;-59
2022/03/17 04:18:48;;;;;;;7.13;4.78;;;15.50;76.20;;;;;;5032838;28;20095;-59
2022/03/17 04:21:14;;;;;;;8.30;5.80;;;15.60;75.90;;;;;;5033046;28;20360;-58
2022/03/17 04:23:39;;;;;;;4.63;3.97;;;15.60;75.60;;;;;;5032727;28;20029;-59
2022/03/17 04:26:05;;;;;;;7.47;4.60;;;15.60;75.60;;;;;;5032588;28;20049;-59
2022/03/17 04:28:30;;;;;;;5.25;3.88;;;15.60;75.70;;;;;;5032619;28;20542;-58
2022/03/17 04:30:56;;;;;;;7.43;5.47;;;15.60;75.30;;;;;;5032868;28;20506;-59
2022/03/17 04:33:22;;;;;;;4.97;3.78;;;15.50;74.70;;;;;;5032807;28;20474;-59
2022/03/17 04:35:47;;;;;;;4.20;3.78;;;15.50;75.40;;;;;;5032823;28;20541;-58
2022/03/17 04:38:13;;;;;;;6.00;3.95;;;15.50;75.70;;;;;;5032673;28;20030;-59
2022/03/17 04:40:41;;;;;;;6.85;4.50;;;15.50;75.60;;;;;;5034424;28;20084;-59
2022/03/17 04:43:06;;;;;;;7.35;4.50;;;15.50;75.20;;;;;;5036290;28;20406;-59
2022/03/17 04:45:32;;;;;;;7.00;4.80;;;15.50;74.70;;;;;;5036516;28;20026;-59
2022/03/17 04:47:58;;;;;;;4.72;4.18;;;15.40;74.70;;;;;;5036552;28;20425;-59
2022/03/17 04:50:23;;;;;;;7.68;5.63;;;15.40;74.70;;;;;;5036488;28;20470;-59
2022/03/17 04:55:33;;;;;;;6.80;4.82;;;15.40;75.20;;;;;;5036167;28;20052;-58
2022/03/17 04:57:59;;;;;;;6.70;4.63;;;15.20;75.40;;;;;;5036083;28;20463;-59
2022/03/17 05:00:25;;;;;;;8.63;5.88;;;15.30;75.40;;;;;;5036270;28;20485;-59
2022/03/17 05:02:50;;;;;;;6.25;5.13;;;15.20;75.40;;;;;;5036320;28;20124;-60
2022/03/17 05:05:16;;;;;;;6.00;5.32;;;15.20;75.80;;;;;;5035872;28;20494;-59
2022/03/17 05:07:41;;;;;;;8.80;6.47;;;15.20;75.70;;;;;;5036376;28;20045;-60
2022/03/17 05:10:09;;;;;;;6.10;3.80;;;15.20;75.70;;;;;;5036143;28;20037;-60
2022/03/17 05:12:34;;;;;;;4.32;2.78;;;15.20;76.00;;;;;;5035924;28;20030;-58
2022/03/17 05:15:00;;;;;;;6.40;5.60;;;15.20;76.10;;;;;;5036182;28;20040;-59
2022/03/17 05:17:26;;;;;;;7.97;5.00;;;15.20;76.00;;;;;;5035961;28;20040;-62
2022/03/17 05:19:51;;;;;;;9.43;6.32;;;15.20;76.10;;;;;;5036163;28;20458;-61
2022/03/17 05:22:17;;;;;;;7.20;5.85;;;15.20;75.90;;;;;;5035797;28;20055;-64
2022/03/17 05:24:42;;;;;;;8.68;6.13;;;15.20;75.60;;;;;;5035578;28;20105;-64
2022/03/17 05:27:08;;;;;;;7.80;4.95;;;15.10;75.80;;;;;;5035806;28;20405;-63
2022/03/17 05:29:34;;;;;;;6.90;6.20;;;15.10;76.20;;;;;;5035464;28;20463;-64
2022/03/17 05:31:59;;;;;;;6.03;5.40;;;15.10;75.80;;;;;;5035861;28;20018;-61
2022/03/17 05:34:25;;;;;;;8.50;6.15;;;15.10;75.70;;;;;;5035434;28;20473;-60
2022/03/17 05:36:50;;;;;;;7.15;4.13;;;15.10;75.80;;;;;;5035648;28;20056;-60
2022/03/17 05:39:16;;;;;;;7.90;4.90;;;15.10;75.60;;;;;;5035422;28;20036;-63
2022/03/17 05:41:41;;;;;;;8.45;4.70;;;15.10;75.70;;;;;;5017419;28;20037;-59
2022/03/17 05:44:08;;;;;;;6.72;5.22;;;15.00;75.40;;;;;;5035709;28;20026;-61
2022/03/17 05:46:34;;;;;;;7.47;5.10;;;15.00;75.60;;;;;;5035627;28;20021;-62
2022/03/17 05:49:00;;;;;;;8.60;5.75;;;15.00;75.70;;;;;;5035369;28;20360;-63
2022/03/17 05:51:25;;;;;;;9.55;5.78;;;15.00;75.40;;;;;;5034041;28;20095;-61
2022/03/17 05:53:51;;;;;;;6.05;4.25;;;14.90;75.50;;;;;;5035118;28;20073;-60
2022/03/17 05:56:16;;;;;;;7.82;5.80;;;14.80;75.60;;;;;;5035053;28;20484;-59
2022/03/17 05:58:42;;;;;;;5.72;4.90;;;14.90;75.70;;;;;;5035151;28;20041;-60
2022/03/17 06:01:08;;;;;;;7.55;5.45;;;14.80;75.60;;;;;;5027960;28;20379;-60
2022/03/17 06:03:34;;;;;;;8.35;5.07;;;14.80;75.80;;;;;;5034257;28;20554;-59
2022/03/17 06:06:00;;;;;;;9.05;5.55;;;14.70;76.00;;;;;;5033521;28;20367;-63
2022/03/17 06:08:25;;;;;;;5.95;5.15;;;14.70;75.80;;;;;;5034108;28;20032;-59
2022/03/17 06:10:51;;;;;;;6.20;4.72;;;14.80;75.40;;;;;;5034769;28;20022;-60
2022/03/17 06:13:18;;;;;;;5.47;4.25;;;14.70;75.90;;;;;;5034997;28;20029;-58
2022/03/17 06:15:44;;;;;;;7.88;4.88;;;14.70;76.20;;;;;;5029042;28;20128;-54
2022/03/17 06:18:10;;;;;;;6.85;4.25;;;14.70;76.00;;;;;;5005512;28;20104;-60
2022/03/17 06:20:38;;;;;;;6.93;4.82;;;14.60;75.70;;;;;;5023600;28;20029;-61
2022/03/17 06:23:05;;;;;;;5.18;3.92;;;14.60;75.90;;;;;;5026042;28;20025;-58
2022/03/17 06:25:32;;;;;;;8.60;4.47;;;14.50;76.20;;;;;;5029329;28;20078;-59
2022/03/17 06:27:58;;;;;;;6.25;4.68;;;14.60;76.00;;;;;;5033918;28;20056;-57
2022/03/17 06:30:27;;;;;;;5.78;4.15;;;14.50;76.10;;;;;;5033951;28;20538;-59
2022/03/17 06:32:54;;;;;;;4.97;3.67;;;14.60;75.70;;;;;;5031427;28;20088;-59
2022/03/17 06:35:22;;;;;;;8.65;4.15;;;14.50;75.30;;;;;;5033568;28;20482;-58
2022/03/17 06:37:53;;;;;;;8.02;4.05;;;14.50;75.50;;;;;;5033023;28;20021;-56
2022/03/17 06:40:20;;;;;;;6.28;4.05;;;14.40;76.00;;;;;;5033419;28;20041;-59
2022/03/17 06:42:46;;;;;;;6.38;4.13;;;14.20;76.50;;;;;;5029141;28;20067;-62
2022/03/17 06:45:12;;;;;;;8.18;3.22;;;14.20;76.50;;;;;;5027057;28;20025;-59
2022/03/17 06:47:38;;;;;;;4.47;3.28;;;14.20;76.50;;;;;;5026329;28;20042;-61
2022/03/17 06:50:05;;;;;;;7.55;3.45;;;14.20;76.40;;;;;;5027742;28;20022;-56
2022/03/17 06:52:31;;;;;;;7.75;3.40;;;14.20;76.30;;;;;;5026442;28;20021;-58
2022/03/17 06:54:57;;;;;;;5.57;3.03;;;14.20;76.10;;;;;;5025930;28;20044;-62
2022/03/17 06:57:23;;;;;;;8.27;3.58;;;14.30;76.20;;;;;;5028300;28;20096;-62
2022/03/17 06:59:49;;;;;;;6.43;3.30;;;14.30;75.60;;;;;;5026554;28;20030;-60
2022/03/17 07:02:16;;;;;;;6.63;2.80;;;14.30;75.50;;;;;;5027162;28;20033;-61
2022/03/17 07:04:42;;;;;;;5.25;2.55;;;14.30;75.50;;;;;;5028190;28;20398;-62
2022/03/17 07:07:08;;;;;;;7.28;2.88;;;14.20;75.40;;;;;;5024443;28;20026;-59
2022/03/17 07:09:34;;;;;;;7.10;2.78;;;14.30;75.90;;;;;;5029692;28;20026;-60
2022/03/17 07:12:00;;;;;;;4.20;2.30;;;14.30;75.60;;;;;;5025796;28;20036;-54
2022/03/17 07:14:26;;;;;;;5.32;2.42;;;14.30;75.70;;;;;;5030392;28;20025;-60
2022/03/17 07:16:51;;;;;;;6.18;2.72;;;14.40;75.70;;;;;;5029383;28;20517;-60
2022/03/17 07:19:17;;;;;;;5.10;2.15;;;14.30;74.70;;;;;;5025502;28;20040;-59
2022/03/17 07:21:42;;;;;;;5.45;2.55;;;14.30;74.60;;;;;;5019690;28;20371;-59
2022/03/17 07:24:09;;;;;;;4.38;2.50;;;14.30;74.80;;;;;;5027288;28;20087;-58
2022/03/17 07:26:39;;;;;;;6.45;2.80;;;14.30;74.60;;;;;;5026328;28;20522;-58
2022/03/17 07:29:05;;;;;;;5.25;2.17;;;14.30;74.60;;;;;;5024031;28;20092;-59
2022/03/17 07:31:31;;;;;;;6.43;2.05;;;14.30;74.40;;;;;;5028604;28;20478;-58
2022/03/17 07:33:56;;;;;;;6.25;2.03;;;14.30;73.80;;;;;;5020290;28;20088;-59
2022/03/17 07:36:22;;;;;;;2.78;1.20;;;14.30;73.50;;;;;;5011365;28;20029;-58
2022/03/17 07:38:48;;;;;;;4.10;1.42;;;14.30;73.50;;;;;;5032953;28;20037;-59
2022/03/17 07:41:15;;;;;;;3.97;1.60;;;14.30;73.20;;;;;;5026527;28;20038;-58
2022/03/17 07:43:43;;;;;;;3.90;1.50;;;14.30;73.50;;;;;;5031782;28;20467;-59
2022/03/17 07:46:09;;;;;;;4.90;1.80;;;14.30;74.20;;;;;;5018221;28;20026;-59
2022/03/17 07:48:35;;;;;;;7.63;1.83;;;14.30;73.60;;;;;;5020618;28;20450;-58
2022/03/17 07:51:01;;;;;;;3.38;1.50;;;14.30;73.00;;;;;;5030745;28;20033;-59
2022/03/17 07:53:26;;;;;;;4.35;1.63;;;14.20;73.60;;;;;;5031432;28;20314;-59
2022/03/17 07:55:54;;;;;;;5.60;1.60;;;14.30;72.80;;;;;;5032210;28;20489;-60
2022/03/17 07:58:24;;;;;;;2.00;1.10;;;14.20;72.60;;;;;;5032795;28;20033;-58
2022/03/17 08:00:56;;;;;;;3.33;1.10;;;14.20;72.00;;;;;;5032795;28;20030;-58
2022/03/17 08:03:22;;;;;;;4.87;1.17;;;14.20;72.80;;;;;;5031792;28;20026;-60
2022/03/17 08:05:48;;;;;;;4.03;1.15;;;14.20;71.80;;;;;;5032300;28;20292;-60
2022/03/17 08:08:18;;;;;;;3.92;1.25;;;14.10;71.80;;;;;;5032281;28;20032;-59
2022/03/17 08:10:44;;;;;;;4.13;1.35;;;14.10;72.10;;;;;;5029990;28;21887;-60
2022/03/17 08:13:10;;;;;;;3.90;1.20;;;14.10;72.80;;;;;;5031842;28;20478;-62
2022/03/17 08:15:37;;;;;;;3.53;1.30;;;14.20;72.30;;;;;;5034950;28;20032;-60
2022/03/17 08:18:04;;;;;;;3.88;1.10;;;14.10;72.10;;;;;;5036123;28;20025;-64
2022/03/17 08:20:30;;;;;;;5.85;2.63;;;14.10;72.20;;;;;;5036761;28;20021;-60
2022/03/17 08:22:56;;;;;;;5.13;1.45;;;14.10;71.60;;;;;;5036642;28;20025;-61
2022/03/17 08:25:22;;;;;;;3.80;1.38;;;14.10;71.60;;;;;;5036822;28;20023;-61
2022/03/17 08:27:50;;;;;;;5.68;1.50;;;14.10;71.60;;;;;;5036387;28;20045;-64
2022/03/17 08:30:16;;;;;;;2.72;1.38;;;14.10;71.70;;;;;;5035509;28;20384;-60
2022/03/17 08:32:42;;;;;;;5.35;1.42;;;14.10;71.60;;;;;;5035427;28;20064;-60
2022/03/17 08:35:14;;;;;;;4.35;1.50;;;14.00;71.50;;;;;;5029932;28;20026;-61
2022/03/17 08:37:45;;;;;;;4.38;1.23;;;14.10;70.80;;;;;;5035883;28;20029;-62
2022/03/17 08:40:12;;;;;;;4.05;1.25;;;14.10;70.40;;;;;;5036534;28;20013;-59
2022/03/17 08:42:39;;;;;;;3.58;1.13;;;14.10;70.10;;;;;;5035993;28;20403;-64
2022/03/17 08:49:18;;;;;;;2.65;0.70;;;14.10;70.20;;;;;;5036248;28;20072;-59
2022/03/17 08:50:38;;;;;;;6.45;1.33;;;14.00;70.20;;;;;;5036462;28;20044;-62
2022/03/17 08:53:03;;;;;;;4.28;1.38;;;14.10;70.00;;;;;;5035465;28;20052;-59
2022/03/17 08:55:29;;;;;;;4.70;1.65;;;14.10;70.20;;;;;;5034679;28;20025;-64
2022/03/17 08:57:55;;;;;;;3.60;0.98;;;14.10;70.70;;;;;;5033457;28;20030;-63
2022/03/17 09:00:22;;;;;;;2.90;1.80;;;14.00;71.50;;;;;;5019310;28;20032;-59
2022/03/17 09:02:48;;;;;;;6.10;1.60;;;14.10;71.00;;;;;;5033175;28;20026;-64
2022/03/17 09:05:14;;;;;;;4.30;1.48;;;14.10;72.80;;;;;;5035355;28;20364;-60
2022/03/17 09:07:40;;;;;;;5.22;2.03;;;14.10;70.70;;;;;;5032433;28;20476;-60
2022/03/17 09:10:05;;;;;;;2.95;1.63;;;14.10;69.20;;;;;;5030113;28;20355;-57
2022/03/17 09:12:33;;;;;;;3.13;1.48;;;14.10;68.80;;;;;;5030209;28;20026;-59
2022/03/17 09:14:59;;;;;;;3.45;1.40;;;14.00;68.60;;;;;;5028577;28;20033;-56
2022/03/17 09:17:25;;;;;;;3.00;1.45;;;14.10;68.60;;;;;;5031703;28;20104;-59
2022/03/17 09:19:51;;;;;;;4.43;1.85;;;14.00;69.20;;;;;;5030420;28;20113;-59
2022/03/17 09:22:16;;;;;;;3.22;1.73;;;14.10;68.50;;;;;;5032583;28;20581;-60
2022/03/17 09:24:43;;;;;;;5.50;1.80;;;14.10;68.40;;;;;;5015523;28;20075;-60
2022/03/17 09:27:09;;;;;;;4.03;1.23;;;14.10;69.40;;;;;;5028985;28;20061;-61
2022/03/17 09:29:38;;;;;;;4.75;2.17;;;14.10;68.60;;;;;;5016539;28;20106;-61
2022/03/17 09:32:04;;;;;;;4.07;2.08;;;14.00;68.00;;;;;;5030902;28;20052;-63
2022/03/17 09:34:32;;;;;;;2.88;1.80;;;14.00;68.20;;;;;;5034593;28;20091;-59
2022/03/17 09:36:57;;;;;;;5.60;2.00;;;14.00;68.40;;;;;;5034538;28;20417;-63
2022/03/17 09:42:07;;;;;;;3.67;2.33;;;14.00;68.50;;;;;;5033734;28;20064;-62
2022/03/17 09:44:33;;;;;;;6.60;2.35;;;14.00;68.70;;;;;;5034158;28;20029;-62
2022/03/17 09:47:02;;;;;;;3.42;2.45;;;14.00;69.00;;;;;;5034600;28;20368;-60
2022/03/17 09:49:29;;;;;;;4.32;2.58;;;14.00;69.00;;;;;;5034664;28;20032;-58
2022/03/17 09:51:57;;;;;;;6.13;3.38;;;14.00;69.10;;;;;;5035196;28;20421;-59
2022/03/17 09:54:23;;;;;;;6.90;2.83;;;14.00;69.20;;;;;;5035309;28;20075;-59
2022/03/17 09:56:48;;;;;;;4.63;2.53;;;14.00;69.40;;;;;;5035338;28;20425;-60
2022/03/17 09:59:14;;;;;;;4.47;2.28;;;14.00;70.00;;;;;;5034979;28;20025;-60
2022/03/17 10:01:41;;;;;;;5.20;2.50;;;14.00;70.10;;;;;;5034941;28;20030;-60
2022/03/17 10:04:07;;;;;;;4.22;2.00;;;14.00;70.00;;;;;;5035131;28;20025;-59
2022/03/17 10:06:33;;;;;;;5.60;2.33;;;14.10;70.30;;;;;;5035049;28;20078;-59
2022/03/17 10:08:59;;;;;;;5.30;2.42;;;14.10;70.20;;;;;;5032965;28;20540;-59
2022/03/17 10:11:26;;;;;;;5.47;3.08;;;14.10;70.30;;;;;;5015053;28;20026;-58
2022/03/17 10:13:54;;;;;;;5.55;2.63;;;14.00;70.80;;;;;;5027844;28;20390;-59
2022/03/17 10:16:21;;;;;;;7.03;2.53;;;14.10;71.00;;;;;;5034605;28;20352;-59
2022/03/17 10:19:03;;;;;;;5.22;2.28;;;14.10;71.30;;;;;;5034384;28;20037;-59
2022/03/17 10:21:29;;;;;;;5.28;2.55;;;14.10;71.50;;;;;;5034644;28;20037;-59
2022/03/17 10:24:02;;;;;;;5.57;2.67;;;14.10;71.30;;;;;;5034696;28;20104;-59
2022/03/17 10:26:42;;;;;;;4.38;3.25;;;14.20;71.40;;;;;;5034622;28;20029;-60
2022/03/17 10:29:24;;;;;;;8.20;3.35;;;14.10;71.20;;;;;;5034432;28;20110;-60
2022/03/17 10:32:01;;;;;;;5.28;3.35;;;14.20;70.90;;;;;;5034329;28;20049;-59
2022/03/17 10:34:35;;;;;;;6.57;3.30;;;14.10;70.20;;;;;;5034420;28;20073;-59
2022/03/17 10:37:30;;;;;;;7.40;3.30;;;14.10;70.70;;;;;;5033928;28;20036;-59
2022/03/17 10:39:57;;;;;;;6.57;3.15;;;14.10;70.90;;;;;;5031977;28;20040;-59
2022/03/17 10:42:28;;;;;;;3.97;3.03;;;14.10;70.70;;;;;;5034042;28;20159;-59
2022/03/17 10:45:00;;;;;;;6.18;3.17;;;14.10;70.70;;;;;;5029177;28;20820;-60
2022/03/17 10:47:27;;;;;;;;;;;14.10;71.00;;;;;;5032229;28;20017;-60
2022/03/17 10:50:20;;;;;;;4.43;2.85;;;14.00;70.90;;;;;;5033955;28;19911;-60
2022/03/17 10:52:52;;;;;;;9.07;3.15;;;14.10;71.20;;;;;;5029396;28;20040;-59
2022/03/17 10:55:32;;;;;;;11.07;2.92;;;14.10;71.50;;;;;;5033916;28;20362;-60
2022/03/17 10:58:15;;;;;;;6.53;4.30;;;14.10;70.90;;;;;;5033569;28;20017;-60
2022/03/17 11:00:50;;;;;;;7.88;3.53;;;14.10;71.10;;;;;;5032027;28;20037;-59
2022/03/17 11:03:17;;;;;;;6.45;2.83;;;14.10;71.30;;;;;;5031570;28;20162;-62
2022/03/17 11:05:42;;;;;;;6.45;2.90;;;14.10;71.70;;;;;;5033555;28;20022;-60
2022/03/17 11:08:09;;;;;;;8.50;3.03;;;14.10;71.80;;;;;;5033423;28;20029;-62
2022/03/17 11:10:36;;;;;;;3.85;2.35;;;14.10;71.20;;;;;;5029407;28;20132;-63
2022/03/17 11:13:09;;;;;;;4.32;2.60;;;14.10;72.00;;;;;;5029433;28;20025;-64
2022/03/17 11:15:38;;;;;;;4.07;1.42;;;14.10;72.10;;;;;;5032237;28;20108;-63
2022/03/17 11:18:07;;;;;;;4.03;1.95;;;14.20;74.40;;;;;;5032236;28;20095;-63
2022/03/17 11:20:33;;;;;;;6.30;2.75;;;14.30;73.20;;;;;;5032716;28;20075;-63
2022/03/17 11:23:16;;;;;;;6.68;2.60;;;14.30;71.60;;;;;;5031594;28;20064;-64
2022/03/17 11:25:52;;;;;;;7.35;2.80;;;14.30;72.30;;;;;;5028027;28;20021;-63
2022/03/17 11:28:28;;;;;;;6.63;3.08;;;14.30;71.80;;;;;;5010104;28;20046;-59
2022/03/17 11:31:19;;;;;;;4.03;2.45;;;14.30;70.80;;;;;;5010361;28;20387;-63
2022/03/17 11:33:45;;;;;;;5.05;2.47;;;14.20;70.40;;;;;;5031838;28;20505;-62
2022/03/17 11:36:21;;;;;;;3.75;2.33;;;14.20;69.30;;;;;;5030384;28;20021;-62
2022/03/17 11:38:58;;;;;;;3.75;2.47;;;14.20;69.70;;;;;;5030387;28;20053;-59
2022/03/17 11:41:24;;;;;;;4.75;2.45;;;14.20;68.80;;;;;;5030323;28;20037;-61
2022/03/17 11:43:50;;;;;;;4.40;2.25;;;14.20;67.70;;;;;;5014017;28;20021;-60
2022/03/17 11:46:24;;;;;;;4.22;2.20;;;14.20;67.70;;;;;;5032767;28;20029;-59
2022/03/17 11:48:54;;;;;;;6.80;2.13;;;14.20;67.00;;;;;;5032448;28;20033;-61
2022/03/17 11:51:20;;;;;;;2.70;1.48;;;14.20;68.00;;;;;;5031485;28;20028;-59
2022/03/17 11:54:03;;;;;;;6.55;3.22;;;14.20;67.80;;;;;;5029103;28;20101;-62
2022/03/17 11:56:31;;;;;;;9.10;2.80;;;14.20;67.30;;;;;;5028794;28;20029;-63
2022/03/17 11:58:57;;;;;;;5.03;1.90;;;14.20;67.10;;;;;;5023005;28;20402;-63
2022/03/17 12:01:27;;;;;;;4.88;1.70;;;14.30;68.40;;;;;;5012887;28;20036;-59
2022/03/17 12:04:04;;;;;;;6.00;2.00;;;14.20;67.70;;;;;;5029082;28;20030;-60
2022/03/17 12:06:35;;;;;;;4.30;1.70;;;14.20;67.60;;;;;;5030686;28;20033;-62
2022/03/17 12:09:02;;;;;;;3.60;2.20;;;14.20;66.90;;;;;;5020328;28;20041;-62
2022/03/17 12:11:33;;;;;;;4.30;1.85;;;14.20;65.90;;;;;;5020229;28;20104;-61
2022/03/17 12:14:13;;;;;;;2.88;1.30;;;14.30;65.60;;;;;;5028706;28;20453;-60
2022/03/17 12:16:42;;;;;;;10.80;2.53;;;14.20;65.50;;;;;;5013386;28;20037;-59
2022/03/17 12:19:08;;;;;;;4.82;1.77;;;14.20;65.40;;;;;;5029319;28;20029;-60
2022/03/17 12:22:09;;;;;;;4.60;1.90;;;14.20;65.30;;;;;;5023659;28;20434;-59
2022/03/17 12:24:45;;;;;;;3.05;1.50;;;14.20;65.70;;;;;;4962481;28;20510;-60
2022/03/17 12:27:11;;;;;;;3.85;2.00;;;14.20;65.20;;;;;;5025844;28;20037;-61
2022/03/17 12:29:37;;;;;;;3.78;1.70;;;14.20;65.00;;;;;;5026854;28;20041;-59
2022/03/17 12:32:07;;;;;;;6.22;2.10;;;14.20;65.60;;;;;;5011953;28;20374;-59
2022/03/17 12:34:34;;;;;;;4.90;1.60;;;14.20;65.60;;;;;;5019586;28;20076;-59
2022/03/17 12:37:01;;;;;;;4.53;1.70;;;14.30;65.70;;;;;;5030098;28;20039;-63
2022/03/17 12:39:32;;;;;;;3.72;1.52;;;14.20;66.10;;;;;;5012125;28;20108;-60
2022/03/17 12:41:59;;;;;;;6.35;1.98;;;14.20;66.50;;;;;;5019726;28;20041;-66
2022/03/17 12:44:26;;;;;;;20.83;3.20;;;14.20;67.10;;;;;;5031455;28;20037;-64
2022/03/17 12:46:53;;;;;;;14.75;2.45;;;14.40;69.70;;;;;;5032211;28;20505;-59
2022/03/17 12:49:21;;;;;;;5.00;1.90;;;14.40;65.80;;;;;;5031896;28;20021;-59
2022/03/17 12:51:49;;;;;;;9.13;1.80;;;14.40;67.20;;;;;;5031379;28;20018;-60
2022/03/17 12:54:15;;;;;;;11.10;1.52;;;14.40;68.00;;;;;;5031582;28;20091;-59
2022/03/17 12:56:51;;;;;;;6.88;1.80;;;14.50;68.70;;;;;;5031559;28;20100;-58
2022/03/17 12:59:18;;;;;;;9.60;2.40;;;14.50;68.00;;;;;;5031465;28;20037;-59
2022/03/17 13:01:48;;;;;;;5.25;2.25;;;14.50;67.30;;;;;;5034732;28;20044;-59